sensor_id;sensor_type;location;lat;lon;timestamp;pressure;altitude;pressure_sealevel;temperature;humidity
19672;BME280;9983;51.114;13.788;2023-02-16T00:03:44;100259.53;;;1.42;100.00
19672;BME280;9983;51.114;13.788;2023-02-16T00:08:50;100256.75;;;1.85;100.00
19672;BME280;9983;51.114;13.788;2023-02-16T00:13:50;100266.97;;;1.77;100.00
19672;BME280;9983;51.114;13.788;2023-02-16T00:18:52;100250.66;;;1.97;100.00
19672;BME280;9983;51.114;13.788;2023-02-16T00:23:52;100255.69;;;1.75;100.00
19672;BME280;9983;51.114;13.788;2023-02-16T00:28:54;100266.00;;;1.24;100.00
19672;BME280;9983;51.114;13.788;2023-02-16T00:33:58;100265.34;;;1.62;100.00
19672;BME280;9983;51.114;13.788;2023-02-16T00:38:59;100252.34;;;1.44;100.00
19672;BME280;9983;51.114;13.788;2023-02-16T00:43:59;100259.75;;;1.39;100.00
19672;BME280;9983;51.114;13.788;2023-02-16T00:48:59;100241.19;;;1.53;100.00
19672;BME280;9983;51.114;13.788;2023-02-16T00:54:00;100242.72;;;1.58;100.00
19672;BME280;9983;51.114;13.788;2023-02-16T00:59:01;100250.88;;;1.40;100.00
19672;BME280;9983;51.114;13.788;2023-02-16T01:04:06;100243.31;;;1.48;100.00
19672;BME280;9983;51.114;13.788;2023-02-16T01:09:13;100231.91;;;1.61;100.00
19672;BME280;9983;51.114;13.788;2023-02-16T01:14:32;100231.13;;;1.73;100.00
19672;BME280;9983;51.114;13.788;2023-02-16T01:19:32;100233.09;;;1.57;100.00
19672;BME280;9983;51.114;13.788;2023-02-16T01:24:32;100235.84;;;1.00;100.00
19672;BME280;9983;51.114;13.788;2023-02-16T01:29:33;100229.34;;;1.46;100.00
19672;BME280;9983;51.114;13.788;2023-02-16T01:34:33;100223.81;;;1.64;100.00
19672;BME280;9983;51.114;13.788;2023-02-16T01:39:34;100221.19;;;1.76;100.00
19672;BME280;9983;51.114;13.788;2023-02-16T01:44:45;100215.59;;;1.41;100.00
19672;BME280;9983;51.114;13.788;2023-02-16T01:49:47;100210.41;;;1.67;100.00
19672;BME280;9983;51.114;13.788;2023-02-16T02:00:12;100227.03;;;1.55;100.00
19672;BME280;9983;51.114;13.788;2023-02-16T02:05:24;100207.34;;;1.73;100.00
19672;BME280;9983;51.114;13.788;2023-02-16T02:11:11;100210.41;;;1.67;100.00
19672;BME280;9983;51.114;13.788;2023-02-16T02:16:16;100208.47;;;1.69;100.00
19672;BME280;9983;51.114;13.788;2023-02-16T02:37:56;100217.72;;;1.08;100.00
19672;BME280;9983;51.114;13.788;2023-02-16T02:43:19;100189.75;;;1.32;100.00
19672;BME280;9983;51.114;13.788;2023-02-16T02:48:21;100202.72;;;1.49;100.00
19672;BME280;9983;51.114;13.788;2023-02-16T02:53:21;100201.63;;;1.39;100.00
19672;BME280;9983;51.114;13.788;2023-02-16T02:58:24;100190.44;;;1.48;100.00
19672;BME280;9983;51.114;13.788;2023-02-16T03:03:52;100189.84;;;1.58;100.00
19672;BME280;9983;51.114;13.788;2023-02-16T03:08:59;100196.84;;;1.59;100.00
19672;BME280;9983;51.114;13.788;2023-02-16T03:14:05;100212.34;;;1.50;100.00
19672;BME280;9983;51.114;13.788;2023-02-16T03:19:10;100207.41;;;1.18;100.00
19672;BME280;9983;51.114;13.788;2023-02-16T03:24:32;100205.00;;;1.41;100.00
19672;BME280;9983;51.114;13.788;2023-02-16T03:29:51;100207.09;;;1.36;100.00
19672;BME280;9983;51.114;13.788;2023-02-16T03:34:53;100208.97;;;1.34;100.00
19672;BME280;9983;51.114;13.788;2023-02-16T03:39:53;100198.91;;;1.53;100.00
19672;BME280;9983;51.114;13.788;2023-02-16T03:45:11;100214.59;;;1.42;100.00
19672;BME280;9983;51.114;13.788;2023-02-16T03:50:12;100216.03;;;1.48;100.00
19672;BME280;9983;51.114;13.788;2023-02-16T03:55:12;100220.72;;;1.02;100.00
19672;BME280;9983;51.114;13.788;2023-02-16T04:00:13;100207.88;;;1.24;100.00
19672;BME280;9983;51.114;13.788;2023-02-16T04:05:13;100205.97;;;1.26;100.00
19672;BME280;9983;51.114;13.788;2023-02-16T04:10:14;100218.06;;;1.30;100.00
19672;BME280;9983;51.114;13.788;2023-02-16T04:15:20;100213.66;;;1.43;100.00
19672;BME280;9983;51.114;13.788;2023-02-16T04:20:23;100203.81;;;1.33;100.00
19672;BME280;9983;51.114;13.788;2023-02-16T04:25:24;100212.09;;;1.00;100.00
19672;BME280;9983;51.114;13.788;2023-02-16T04:30:27;100196.81;;;0.76;100.00
19672;BME280;9983;51.114;13.788;2023-02-16T04:35:28;100193.78;;;0.97;100.00
19672;BME280;9983;51.114;13.788;2023-02-16T04:40:29;100194.53;;;0.99;100.00
19672;BME280;9983;51.114;13.788;2023-02-16T04:45:29;100185.84;;;1.11;100.00
19672;BME280;9983;51.114;13.788;2023-02-16T04:50:29;100189.69;;;0.50;100.00
19672;BME280;9983;51.114;13.788;2023-02-16T04:55:30;100191.56;;;0.48;100.00
19672;BME280;9983;51.114;13.788;2023-02-16T05:00:30;100192.66;;;0.87;100.00
19672;BME280;9983;51.114;13.788;2023-02-16T05:05:31;100185.78;;;0.98;100.00
19672;BME280;9983;51.114;13.788;2023-02-16T05:10:31;100194.91;;;1.07;100.00
19672;BME280;9983;51.114;13.788;2023-02-16T05:15:31;100191.53;;;0.91;100.00
19672;BME280;9983;51.114;13.788;2023-02-16T05:20:31;100207.94;;;0.67;100.00
19672;BME280;9983;51.114;13.788;2023-02-16T05:25:50;100204.66;;;0.50;100.00
19672;BME280;9983;51.114;13.788;2023-02-16T05:30:52;100213.41;;;0.64;100.00
19672;BME280;9983;51.114;13.788;2023-02-16T05:35:52;100210.50;;;0.41;100.00
19672;BME280;9983;51.114;13.788;2023-02-16T05:40:53;100207.75;;;0.70;100.00
19672;BME280;9983;51.114;13.788;2023-02-16T05:45:53;100208.09;;;0.22;100.00
19672;BME280;9983;51.114;13.788;2023-02-16T05:50:53;100215.84;;;0.53;100.00
19672;BME280;9983;51.114;13.788;2023-02-16T05:55:54;100218.13;;;0.01;100.00
19672;BME280;9983;51.114;13.788;2023-02-16T06:00:54;100220.03;;;0.57;100.00
19672;BME280;9983;51.114;13.788;2023-02-16T06:05:56;100215.84;;;0.53;100.00
19672;BME280;9983;51.114;13.788;2023-02-16T06:10:56;100222.00;;;0.10;100.00
19672;BME280;9983;51.114;13.788;2023-02-16T06:15:56;100215.84;;;0.53;100.00
19672;BME280;9983;51.114;13.788;2023-02-16T06:20:57;100219.91;;;0.59;100.00
19672;BME280;9983;51.114;13.788;2023-02-16T06:25:57;100225.13;;;0.74;100.00
19672;BME280;9983;51.114;13.788;2023-02-16T06:30:57;100214.75;;;0.71;100.00
19672;BME280;9983;51.114;13.788;2023-02-16T06:35:57;100218.13;;;0.73;100.00
19672;BME280;9983;51.114;13.788;2023-02-16T06:40:57;100218.31;;;0.70;100.00
19672;BME280;9983;51.114;13.788;2023-02-16T06:45:59;100224.25;;;0.74;100.00
19672;BME280;9983;51.114;13.788;2023-02-16T06:50:59;100218.78;;;0.49;100.00
19672;BME280;9983;51.114;13.788;2023-02-16T06:55:59;100214.31;;;0.21;100.00
19672;BME280;9983;51.114;13.788;2023-02-16T07:00:59;100215.84;;;0.53;100.00
19672;BME280;9983;51.114;13.788;2023-02-16T07:06:00;100216.63;;;0.69;100.00
19672;BME280;9983;51.114;13.788;2023-02-16T07:11:00;100207.34;;;0.20;100.00
19672;BME280;9983;51.114;13.788;2023-02-16T07:16:01;100206.22;;;0.95;100.00
19672;BME280;9983;51.114;13.788;2023-02-16T07:21:02;100201.69;;;1.11;100.00
19672;BME280;9983;51.114;13.788;2023-02-16T07:26:02;100200.38;;;0.75;100.00
19672;BME280;9983;51.114;13.788;2023-02-16T07:31:07;100202.44;;;1.13;100.00
19672;BME280;9983;51.114;13.788;2023-02-16T07:36:09;100204.94;;;1.29;100.00
19672;BME280;9983;51.114;13.788;2023-02-16T07:41:10;100218.47;;;1.24;100.00
19672;BME280;9983;51.114;13.788;2023-02-16T07:46:10;100226.50;;;1.49;100.00
19672;BME280;9983;51.114;13.788;2023-02-16T07:51:11;100226.19;;;1.13;100.00
19672;BME280;9983;51.114;13.788;2023-02-16T07:56:20;100225.44;;;1.79;100.00
19672;BME280;9983;51.114;13.788;2023-02-16T08:01:20;100225.69;;;2.01;100.00
19672;BME280;9983;51.114;13.788;2023-02-16T08:06:21;100224.72;;;2.42;100.00
19672;BME280;9983;51.114;13.788;2023-02-16T08:11:23;100230.00;;;2.54;100.00
19672;BME280;9983;51.114;13.788;2023-02-16T08:16:25;100234.88;;;2.73;100.00
19672;BME280;9983;51.114;13.788;2023-02-16T08:21:31;100225.75;;;2.77;100.00
19672;BME280;9983;51.114;13.788;2023-02-16T08:26:37;100220.06;;;2.83;100.00
19672;BME280;9983;51.114;13.788;2023-02-16T08:31:38;100204.09;;;3.45;100.00
19672;BME280;9983;51.114;13.788;2023-02-16T08:36:40;100208.34;;;3.71;100.00
19672;BME280;9983;51.114;13.788;2023-02-16T08:41:42;100209.38;;;4.16;100.00
19672;BME280;9983;51.114;13.788;2023-02-16T08:46:44;100212.16;;;4.37;100.00
19672;BME280;9983;51.114;13.788;2023-02-16T08:51:47;100200.63;;;4.72;100.00
19672;BME280;9983;51.114;13.788;2023-02-16T08:56:48;100201.13;;;4.88;100.00
19672;BME280;9983;51.114;13.788;2023-02-16T09:01:48;100200.84;;;5.36;100.00
19672;BME280;9983;51.114;13.788;2023-02-16T09:06:49;100187.06;;;5.73;100.00
19672;BME280;9983;51.114;13.788;2023-02-16T09:11:51;100175.28;;;5.87;100.00
19672;BME280;9983;51.114;13.788;2023-02-16T09:16:51;100190.44;;;6.28;100.00
19672;BME280;9983;51.114;13.788;2023-02-16T09:21:52;100190.63;;;6.57;94.41
19672;BME280;9983;51.114;13.788;2023-02-16T09:26:55;100181.66;;;7.19;91.88
19672;BME280;9983;51.114;13.788;2023-02-16T09:31:55;100184.22;;;7.40;84.68
19672;BME280;9983;51.114;13.788;2023-02-16T09:36:56;100183.69;;;8.23;82.67
19672;BME280;9983;51.114;13.788;2023-02-16T09:47:23;100179.47;;;8.40;77.59
19672;BME280;9983;51.114;13.788;2023-02-16T09:52:31;100171.75;;;8.83;76.29
19672;BME280;9983;51.114;13.788;2023-02-16T09:57:46;100177.16;;;8.64;75.74
19672;BME280;9983;51.114;13.788;2023-02-16T10:03:06;100173.50;;;8.65;75.28
19672;BME280;9983;51.114;13.788;2023-02-16T10:08:20;100182.22;;;8.67;74.12
19672;BME280;9983;51.114;13.788;2023-02-16T10:13:33;100196.56;;;8.66;72.55
19672;BME280;9983;51.114;13.788;2023-02-16T10:18:37;100190.16;;;8.49;73.98
19672;BME280;9983;51.114;13.788;2023-02-16T10:23:49;100182.38;;;9.02;71.38
19672;BME280;9983;51.114;13.788;2023-02-16T10:28:54;100187.03;;;9.28;70.46
19672;BME280;9983;51.114;13.788;2023-02-16T10:39:11;100173.28;;;10.73;64.77
19672;BME280;9983;51.114;13.788;2023-02-16T10:44:22;100172.25;;;10.99;63.67
19672;BME280;9983;51.114;13.788;2023-02-16T10:49:24;100157.81;;;11.43;60.48
19672;BME280;9983;51.114;13.788;2023-02-16T10:54:30;100159.53;;;11.60;59.72
19672;BME280;9983;51.114;13.788;2023-02-16T10:59:41;100154.34;;;12.80;56.80
19672;BME280;9983;51.114;13.788;2023-02-16T11:04:44;100146.91;;;13.60;55.50
19672;BME280;9983;51.114;13.788;2023-02-16T11:09:48;100139.16;;;13.88;52.51
19672;BME280;9983;51.114;13.788;2023-02-16T11:15:23;100151.66;;;12.72;53.83
19672;BME280;9983;51.114;13.788;2023-02-16T11:25:57;100143.28;;;14.88;48.66
19672;BME280;9983;51.114;13.788;2023-02-16T11:31:44;100132.84;;;15.86;46.59
19672;BME280;9983;51.114;13.788;2023-02-16T11:41:29;100134.50;;;16.86;43.20
19672;BME280;9983;51.114;13.788;2023-02-16T11:46:39;100114.81;;;16.15;44.38
19672;BME280;9983;51.114;13.788;2023-02-16T11:51:39;100110.47;;;15.21;46.22
19672;BME280;9983;51.114;13.788;2023-02-16T11:56:40;100108.13;;;16.11;44.78
19672;BME280;9983;51.114;13.788;2023-02-16T12:13:00;100087.25;;;16.05;44.29
19672;BME280;9983;51.114;13.788;2023-02-16T12:23:35;100074.31;;;14.04;49.43
19672;BME280;9983;51.114;13.788;2023-02-16T12:28:56;100070.59;;;14.42;49.03
19672;BME280;9983;51.114;13.788;2023-02-16T12:39:28;100074.69;;;14.53;49.87
19672;BME280;9983;51.114;13.788;2023-02-16T12:44:39;100068.34;;;13.94;51.10
19672;BME280;9983;51.114;13.788;2023-02-16T12:49:55;100062.69;;;13.43;51.88
19672;BME280;9983;51.114;13.788;2023-02-16T13:00:45;100050.06;;;13.13;52.81
19672;BME280;9983;51.114;13.788;2023-02-16T13:06:01;100054.00;;;13.33;52.30
19672;BME280;9983;51.114;13.788;2023-02-16T13:11:24;100042.16;;;14.17;50.88
19672;BME280;9983;51.114;13.788;2023-02-16T13:16:38;100035.25;;;14.00;50.68
19672;BME280;9983;51.114;13.788;2023-02-16T13:47:53;100026.09;;;15.40;48.19
19672;BME280;9983;51.114;13.788;2023-02-16T13:52:57;100018.94;;;15.32;46.72
19672;BME280;9983;51.114;13.788;2023-02-16T14:08:26;100030.00;;;15.73;44.68
19672;BME280;9983;51.114;13.788;2023-02-16T14:18:34;100031.13;;;16.76;44.29
19672;BME280;9983;51.114;13.788;2023-02-16T14:23:38;100036.31;;;17.25;42.98
19672;BME280;9983;51.114;13.788;2023-02-16T14:29:06;100048.09;;;16.56;43.99
19672;BME280;9983;51.114;13.788;2023-02-16T14:34:16;100047.22;;;15.93;44.71
19672;BME280;9983;51.114;13.788;2023-02-16T14:39:19;100034.75;;;16.55;44.42
19672;BME280;9983;51.114;13.788;2023-02-16T14:44:36;100040.88;;;15.80;46.07
19672;BME280;9983;51.114;13.788;2023-02-16T14:49:57;100053.00;;;15.90;45.84
19672;BME280;9983;51.114;13.788;2023-02-16T14:55:46;100045.31;;;15.66;46.36
19672;BME280;9983;51.114;13.788;2023-02-16T15:01:03;100042.06;;;15.35;47.51
19672;BME280;9983;51.114;13.788;2023-02-16T15:06:05;100039.56;;;14.97;48.16
19672;BME280;9983;51.114;13.788;2023-02-16T15:11:20;100044.59;;;14.86;48.73
19672;BME280;9983;51.114;13.788;2023-02-16T15:16:22;100039.22;;;14.71;49.03
19672;BME280;9983;51.114;13.788;2023-02-16T15:21:25;100037.38;;;14.57;49.78
19672;BME280;9983;51.114;13.788;2023-02-16T15:26:30;100040.28;;;14.03;51.14
19672;BME280;9983;51.114;13.788;2023-02-16T15:31:34;100023.59;;;13.47;52.84
19672;BME280;9983;51.114;13.788;2023-02-16T15:36:42;100016.84;;;12.89;55.22
19672;BME280;9983;51.114;13.788;2023-02-16T15:41:45;100022.94;;;12.83;56.21
19672;BME280;9983;51.114;13.788;2023-02-16T15:46:47;100030.94;;;12.22;57.33
19672;BME280;9983;51.114;13.788;2023-02-16T15:51:47;100033.34;;;11.84;59.86
19672;BME280;9983;51.114;13.788;2023-02-16T15:56:51;100026.59;;;11.64;59.61
19672;BME280;9983;51.114;13.788;2023-02-16T16:01:57;100018.50;;;11.23;61.42
19672;BME280;9983;51.114;13.788;2023-02-16T16:06:58;100024.47;;;10.85;62.89
19672;BME280;9983;51.114;13.788;2023-02-16T16:12:02;100024.78;;;10.14;65.78
19672;BME280;9983;51.114;13.788;2023-02-16T16:17:04;100025.56;;;10.24;65.36
19672;BME280;9983;51.114;13.788;2023-02-16T16:22:28;100028.63;;;10.29;65.08
19672;BME280;9983;51.114;13.788;2023-02-16T16:27:34;100026.22;;;9.74;67.88
19672;BME280;9983;51.114;13.788;2023-02-16T16:32:37;100030.06;;;9.54;68.96
19672;BME280;9983;51.114;13.788;2023-02-16T16:37:37;100033.22;;;9.32;68.74
19672;BME280;9983;51.114;13.788;2023-02-16T16:42:37;100028.88;;;8.41;74.38
19672;BME280;9983;51.114;13.788;2023-02-16T16:47:39;100029.47;;;8.62;74.74
19672;BME280;9983;51.114;13.788;2023-02-16T16:52:43;100035.94;;;8.59;74.68
19672;BME280;9983;51.114;13.788;2023-02-16T16:57:44;100032.97;;;8.25;75.98
19672;BME280;9983;51.114;13.788;2023-02-16T17:02:45;100031.63;;;8.12;77.21
19672;BME280;9983;51.114;13.788;2023-02-16T17:07:45;100026.59;;;7.99;77.38
19672;BME280;9983;51.114;13.788;2023-02-16T17:12:51;100031.44;;;7.67;80.04
19672;BME280;9983;51.114;13.788;2023-02-16T17:17:52;100031.75;;;7.25;83.26
19672;BME280;9983;51.114;13.788;2023-02-16T17:22:53;100028.94;;;7.17;85.00
19672;BME280;9983;51.114;13.788;2023-02-16T17:27:53;100027.94;;;7.56;82.33
19672;BME280;9983;51.114;13.788;2023-02-16T17:32:54;100014.31;;;7.21;84.40
19672;BME280;9983;51.114;13.788;2023-02-16T17:37:54;100028.38;;;6.54;87.99
19672;BME280;9983;51.114;13.788;2023-02-16T17:42:54;100010.88;;;6.61;90.24
19672;BME280;9983;51.114;13.788;2023-02-16T17:47:55;100007.88;;;7.14;85.84
19672;BME280;9983;51.114;13.788;2023-02-16T17:52:55;99998.56;;;6.60;88.51
19672;BME280;9983;51.114;13.788;2023-02-16T17:57:56;99999.47;;;7.09;86.18
19672;BME280;9983;51.114;13.788;2023-02-16T18:02:57;100000.59;;;7.26;84.77
19672;BME280;9983;51.114;13.788;2023-02-16T18:07:57;99997.88;;;6.87;86.75
19672;BME280;9983;51.114;13.788;2023-02-16T18:12:57;100015.13;;;6.73;87.00
19672;BME280;9983;51.114;13.788;2023-02-16T18:17:58;100010.50;;;6.75;86.80
19672;BME280;9983;51.114;13.788;2023-02-16T18:22:58;100009.53;;;6.96;85.29
19672;BME280;9983;51.114;13.788;2023-02-16T18:27:58;100013.22;;;7.14;82.60
19672;BME280;9983;51.114;13.788;2023-02-16T18:32:58;100002.69;;;7.03;85.85
19672;BME280;9983;51.114;13.788;2023-02-16T18:37:59;100019.06;;;6.89;86.02
19672;BME280;9983;51.114;13.788;2023-02-16T18:42:59;100019.25;;;7.16;84.92
19672;BME280;9983;51.114;13.788;2023-02-16T18:47:59;100026.56;;;7.23;84.14
19672;BME280;9983;51.114;13.788;2023-02-16T18:53:00;100022.56;;;6.30;89.41
19672;BME280;9983;51.114;13.788;2023-02-16T18:58:02;100012.47;;;6.73;86.43
19672;BME280;9983;51.114;13.788;2023-02-16T19:03:04;100028.84;;;6.59;86.77
19672;BME280;9983;51.114;13.788;2023-02-16T19:08:04;100034.97;;;7.00;84.39
19672;BME280;9983;51.114;13.788;2023-02-16T19:13:05;100047.16;;;7.12;83.69
19672;BME280;9983;51.114;13.788;2023-02-16T19:18:06;100048.47;;;6.58;86.95
19672;BME280;9983;51.114;13.788;2023-02-16T19:23:06;100042.03;;;6.70;86.34
19672;BME280;9983;51.114;13.788;2023-02-16T19:28:06;100031.41;;;6.80;85.14
19672;BME280;9983;51.114;13.788;2023-02-16T19:33:06;100014.28;;;6.73;85.29
19672;BME280;9983;51.114;13.788;2023-02-16T19:38:07;100016.22;;;6.61;84.70
19672;BME280;9983;51.114;13.788;2023-02-16T19:43:07;100016.00;;;6.83;85.12
19672;BME280;9983;51.114;13.788;2023-02-16T19:48:07;100014.34;;;7.02;84.51
19672;BME280;9983;51.114;13.788;2023-02-16T19:53:07;100016.56;;;6.97;82.71
19672;BME280;9983;51.114;13.788;2023-02-16T19:58:08;100016.31;;;7.19;83.17
19672;BME280;9983;51.114;13.788;2023-02-16T20:03:08;100012.09;;;7.26;82.27
19672;BME280;9983;51.114;13.788;2023-02-16T20:08:09;100014.88;;;7.53;81.09
19672;BME280;9983;51.114;13.788;2023-02-16T20:13:09;100016.00;;;7.60;81.35
19672;BME280;9983;51.114;13.788;2023-02-16T20:18:10;100027.47;;;7.80;82.10
19672;BME280;9983;51.114;13.788;2023-02-16T20:23:10;100023.41;;;7.86;82.16
19672;BME280;9983;51.114;13.788;2023-02-16T20:28:10;100027.91;;;8.22;81.56
19672;BME280;9983;51.114;13.788;2023-02-16T20:33:11;100008.19;;;8.43;78.87
19672;BME280;9983;51.114;13.788;2023-02-16T20:38:12;100020.84;;;8.41;80.35
19672;BME280;9983;51.114;13.788;2023-02-16T20:43:12;100024.53;;;8.20;83.31
19672;BME280;9983;51.114;13.788;2023-02-16T20:48:15;100021.16;;;8.28;84.44
19672;BME280;9983;51.114;13.788;2023-02-16T20:53:15;100012.44;;;8.26;84.18
19672;BME280;9983;51.114;13.788;2023-02-16T20:58:16;100008.22;;;8.23;81.94
19672;BME280;9983;51.114;13.788;2023-02-16T21:03:17;100000.78;;;8.54;83.88
19672;BME280;9983;51.114;13.788;2023-02-16T21:08:17;99999.84;;;8.46;84.97
19672;BME280;9983;51.114;13.788;2023-02-16T21:13:18;99997.97;;;8.56;84.05
19672;BME280;9983;51.114;13.788;2023-02-16T21:18:18;100003.50;;;8.72;84.04
19672;BME280;9983;51.114;13.788;2023-02-16T21:23:18;99990.41;;;8.96;83.35
19672;BME280;9983;51.114;13.788;2023-02-16T21:28:19;99993.16;;;9.04;82.73
19672;BME280;9983;51.114;13.788;2023-02-16T21:33:19;99985.81;;;9.06;83.77
19672;BME280;9983;51.114;13.788;2023-02-16T21:38:19;99978.63;;;9.25;80.80
19672;BME280;9983;51.114;13.788;2023-02-16T21:43:20;99971.59;;;9.24;80.75
19672;BME280;9983;51.114;13.788;2023-02-16T21:48:20;99970.97;;;9.30;80.61
19672;BME280;9983;51.114;13.788;2023-02-16T21:53:39;99976.66;;;9.27;80.89
19672;BME280;9983;51.114;13.788;2023-02-16T21:58:39;99967.63;;;9.28;81.54
19672;BME280;9983;51.114;13.788;2023-02-16T22:03:39;99957.38;;;9.05;82.57
19672;BME280;9983;51.114;13.788;2023-02-16T22:08:40;99950.97;;;9.34;81.36
19672;BME280;9983;51.114;13.788;2023-02-16T22:13:40;99949.91;;;9.27;82.12
19672;BME280;9983;51.114;13.788;2023-02-16T22:18:41;99948.13;;;9.35;81.48
19672;BME280;9983;51.114;13.788;2023-02-16T22:23:42;99951.25;;;9.31;83.01
19672;BME280;9983;51.114;13.788;2023-02-16T22:28:42;99949.50;;;9.22;83.79
19672;BME280;9983;51.114;13.788;2023-02-16T22:33:42;99947.75;;;9.12;85.39
19672;BME280;9983;51.114;13.788;2023-02-16T22:38:43;99938.75;;;9.13;85.14
19672;BME280;9983;51.114;13.788;2023-02-16T22:43:43;99939.38;;;9.07;85.21
19672;BME280;9983;51.114;13.788;2023-02-16T22:48:43;99932.41;;;9.58;82.94
19672;BME280;9983;51.114;13.788;2023-02-16T22:53:44;99923.06;;;9.62;82.29
19672;BME280;9983;51.114;13.788;2023-02-16T22:58:45;99920.25;;;9.46;83.50
19672;BME280;9983;51.114;13.788;2023-02-16T23:03:51;99902.91;;;9.50;82.96
19672;BME280;9983;51.114;13.788;2023-02-16T23:08:56;99901.06;;;9.25;85.17
19672;BME280;9983;51.114;13.788;2023-02-16T23:13:56;99890.09;;;9.36;84.95
19672;BME280;9983;51.114;13.788;2023-02-16T23:18:58;99885.06;;;9.33;85.51
19672;BME280;9983;51.114;13.788;2023-02-16T23:23:59;99874.72;;;9.38;85.39
19672;BME280;9983;51.114;13.788;2023-02-16T23:29:01;99878.75;;;9.42;85.42
19672;BME280;9983;51.114;13.788;2023-02-16T23:34:03;99866.03;;;9.36;85.54
19672;BME280;9983;51.114;13.788;2023-02-16T23:39:07;99882.13;;;9.44;85.17
19672;BME280;9983;51.114;13.788;2023-02-16T23:44:09;99869.44;;;9.54;84.42
19672;BME280;9983;51.114;13.788;2023-02-16T23:49:10;99862.31;;;9.29;86.08
19672;BME280;9983;51.114;13.788;2023-02-16T23:54:11;99857.00;;;9.37;86.15
19672;BME280;9983;51.114;13.788;2023-02-16T23:59:11;99843.28;;;9.40;86.30
